Terminal Aerodrome Forecast
Issued by NWS

Home | Current Version | Previous Version | Text Only | Print | Product List | Glossary On
Versions: 1 2 3 4 5 6 7 8 9 10 11 12 13 14 15 16 17 18 19 20 21 22 23 24 25 26 27 28 29
000
FTUS44 KHGX 281720
TAFUTS
TAF
KUTS 281720Z 2818/2918 18011KT P6SM SCT025
     FM290000 19006KT P6SM SCT025
     FM290900 19006KT P6SM BKN015
     FM291500 19012KT P6SM SCT030=

USA.gov is the U.S. government's official web portal to all federal, state and local government web resources and services.